PWSweather.com
Personal Weather Stations
Station Observations
NYERIN
South Erin, Erin, NY 14838-9545

South ErinErin, NY 14838-9545

Lat: 42.150605, Lon: -76.654038

Elevation: 1663

Station Type: Davis VP Pro II

http://southerin-ny.org/wx.php

Latest ConditionsUpdated 2:12:01 PM EST Friday, Dec 9, 2016
Currently Today's Max Today's Min Today's Average
Temperature 24.8°F-4.0°C 26.6°F-3.0°C 21.6°F-5.8°C 23.7°F-4.6°C
Dew Point 18.6°F-7.4°C 21.2°F-6.0°C 16.5°F-8.6°C 18.4°F-7.6°C
Winds 2.3 mph WNW3.7 kmh WNW 11.5 mph N18.5 kmh N - 5.7 mph 9.2 kmh
Wind Gusts 4.6 mph7.4 kmh 18.4 mph29.6 kmh - -
Humidity 77% 90% 68% 80%
Pressure 30.22 in1023.4 mb 30.22 in1023.4 mb 30.01 in1016.3 mb -
Hour Temp Dew Point Humidity Winds Wind Gusts Pressure Precip Precip Rate Daily Precip Total
02:12 PM 24.8°F-4.0°C 18.6°F-7.4°C 77% 2.3 mph WNW3.7 kmh WNW 4.6 mph7.4 kmh 30.22 in1023.4 mb - 0.00 in0.0 mm 0.00 in0.0 mm
02:02 PM 23.3°F-4.8°C 18.3°F-7.6°C 81% 2.3 mph NW3.7 kmh NW 8.1 mph13.0 kmh 30.21 in1023.0 mb - 0.00 in0.0 mm 0.00 in0.0 mm
01:52 PM 22.2°F-5.4°C 18.3°F-7.6°C 85% 5.8 mph N9.3 kmh N 10.4 mph16.7 kmh 30.22 in1023.4 mb - 0.00 in0.0 mm 0.00 in0.0 mm
01:42 PM 21.6°F-5.8°C 18.6°F-7.4°C 88% 5.8 mph NNW9.3 kmh NNW 11.5 mph18.5 kmh 30.21 in1023.0 mb - 0.00 in0.0 mm 0.00 in0.0 mm
01:32 PM 21.6°F-5.8°C 19.1°F-7.2°C 90% 3.5 mph NNW5.6 kmh NNW 9.2 mph14.8 kmh 30.21 in1023.0 mb - 0.00 in0.0 mm 0.00 in0.0 mm
01:22 PM 21.6°F-5.8°C 19.1°F-7.2°C 90% 2.3 mph NNW3.7 kmh NNW 4.6 mph7.4 kmh 30.21 in1023.0 mb - 0.00 in0.0 mm 0.00 in0.0 mm
01:12 PM 21.9°F-5.6°C 19.2°F-7.1°C 89% 9.2 mph NNW14.8 kmh NNW 11.5 mph18.5 kmh 30.21 in1023.0 mb - 0.00 in0.0 mm 0.00 in0.0 mm
01:02 PM 22.1°F-5.5°C 19.4°F-7.0°C 89% 4.6 mph NW7.4 kmh NW 3.5 mph5.6 kmh 30.21 in1023.0 mb - 0.00 in0.0 mm 0.00 in0.0 mm
12:52 PM 22.4°F-5.3°C 19.6°F-6.9°C 89% 8.1 mph NNW13.0 kmh NNW 9.2 mph14.8 kmh 30.20 in1022.7 mb - 0.00 in0.0 mm 0.00 in0.0 mm
12:42 PM 23.0°F-5.0°C 19.7°F-6.8°C 87% 5.8 mph NNW9.3 kmh NNW 8.1 mph13.0 kmh 30.20 in1022.7 mb - 0.00 in0.0 mm 0.00 in0.0 mm
12:32 PM 23.9°F-4.5°C 20.0°F-6.7°C 85% 8.1 mph NNW13.0 kmh NNW 13.8 mph22.2 kmh 30.20 in1022.7 mb - 0.00 in0.0 mm 0.00 in0.0 mm
12:22 PM 24.5°F-4.2°C 20.4°F-6.4°C 84% 9.2 mph NW14.8 kmh NW 15.0 mph24.1 kmh 30.19 in1022.4 mb - 0.00 in0.0 mm 0.00 in0.0 mm
12:12 PM 25.2°F-3.8°C 19.0°F-7.2°C 77% 8.1 mph NW13.0 kmh NW 17.3 mph27.8 kmh 30.19 in1022.4 mb - 0.00 in0.0 mm 0.00 in0.0 mm
12:02 PM 26.3°F-3.2°C 18.1°F-7.7°C 71% 11.5 mph N18.5 kmh N 16.1 mph25.9 kmh 30.19 in1022.4 mb - 0.00 in0.0 mm 0.00 in0.0 mm
11:52 AM 26.3°F-3.2°C 17.5°F-8.1°C 69% 6.9 mph NW11.1 kmh NW 12.7 mph20.4 kmh 30.19 in1022.4 mb - 0.00 in0.0 mm 0.00 in0.0 mm
11:42 AM 26.6°F-3.0°C 17.5°F-8.1°C 68% 9.2 mph NNW14.8 kmh NNW 11.5 mph18.5 kmh 30.19 in1022.4 mb - 0.00 in0.0 mm 0.00 in0.0 mm
11:32 AM 26.0°F-3.3°C 16.9°F-8.4°C 68% 9.2 mph NW14.8 kmh NW 16.1 mph25.9 kmh 30.19 in1022.4 mb - 0.00 in0.0 mm 0.00 in0.0 mm
11:22 AM 25.6°F-3.6°C 16.8°F-8.4°C 69% 4.6 mph NW7.4 kmh NW 6.9 mph11.1 kmh 30.19 in1022.4 mb - 0.00 in0.0 mm 0.00 in0.0 mm
11:12 AM 25.1°F-3.8°C 16.7°F-8.5°C 70% 4.6 mph NNW7.4 kmh NNW 10.4 mph16.7 kmh 30.19 in1022.4 mb - 0.00 in0.0 mm 0.00 in0.0 mm
11:02 AM 25.2°F-3.8°C 16.5°F-8.6°C 69% 8.1 mph NW13.0 kmh NW 13.8 mph22.2 kmh 30.19 in1022.4 mb - 0.00 in0.0 mm 0.00 in0.0 mm
10:52 AM 25.6°F-3.6°C 17.2°F-8.2°C 70% 5.8 mph N9.3 kmh N 16.1 mph25.9 kmh 30.20 in1022.7 mb - 0.00 in0.0 mm 0.00 in0.0 mm
10:42 AM 25.3°F-3.7°C 16.9°F-8.4°C 70% 5.8 mph NW9.3 kmh NW 10.4 mph16.7 kmh 30.20 in1022.7 mb - 0.00 in0.0 mm 0.00 in0.0 mm
10:32 AM 25.6°F-3.6°C 16.8°F-8.4°C 69% 5.8 mph NNW9.3 kmh NNW 11.5 mph18.5 kmh 30.19 in1022.4 mb - 0.00 in0.0 mm 0.00 in0.0 mm
10:22 AM 25.4°F-3.7°C 16.9°F-8.4°C 70% 10.4 mph NNW16.7 kmh NNW 17.3 mph27.8 kmh 30.19 in1022.4 mb - 0.00 in0.0 mm 0.00 in0.0 mm
10:12 AM 24.8°F-4.0°C 16.7°F-8.5°C 71% 9.2 mph NW14.8 kmh NW 11.5 mph18.5 kmh 30.19 in1022.4 mb - 0.00 in0.0 mm 0.00 in0.0 mm
10:02 AM 24.8°F-4.0°C 16.7°F-8.5°C 71% 10.4 mph NW16.7 kmh NW 18.4 mph29.6 kmh 30.19 in1022.4 mb - 0.00 in0.0 mm 0.00 in0.0 mm
09:52 AM 24.8°F-4.0°C 17.1°F-8.3°C 72% 8.1 mph WNW13.0 kmh WNW 6.9 mph11.1 kmh 30.18 in1022.0 mb - 0.00 in0.0 mm 0.00 in0.0 mm
09:42 AM 24.7°F-4.1°C 17.3°F-8.2°C 73% 4.6 mph NW7.4 kmh NW 4.6 mph7.4 kmh 30.18 in1022.0 mb - 0.00 in0.0 mm 0.00 in0.0 mm
09:32 AM 23.6°F-4.7°C 16.5°F-8.6°C 74% 5.8 mph NW9.3 kmh NW 10.4 mph16.7 kmh 30.18 in1022.0 mb - 0.00 in0.0 mm 0.00 in0.0 mm
09:22 AM 23.3°F-4.8°C 16.5°F-8.6°C 75% 4.6 mph NW7.4 kmh NW 6.9 mph11.1 kmh 30.17 in1021.7 mb - 0.00 in0.0 mm 0.00 in0.0 mm
09:12 AM 23.0°F-5.0°C 16.6°F-8.6°C 76% 6.9 mph WNW11.1 kmh WNW 16.1 mph25.9 kmh 30.16 in1021.3 mb - 0.00 in0.0 mm 0.00 in0.0 mm
09:02 AM 22.8°F-5.1°C 16.9°F-8.4°C 78% 3.5 mph NW5.6 kmh NW 10.4 mph16.7 kmh 30.15 in1021.0 mb - 0.00 in0.0 mm 0.00 in0.0 mm
08:52 AM 22.5°F-5.3°C 17.0°F-8.3°C 79% 2.3 mph NW3.7 kmh NW 3.5 mph5.6 kmh 30.15 in1021.0 mb - 0.00 in0.0 mm 0.00 in0.0 mm
08:42 AM 22.4°F-5.3°C 17.2°F-8.2°C 80% 6.9 mph NW11.1 kmh NW 8.1 mph13.0 kmh 30.15 in1021.0 mb - 0.00 in0.0 mm 0.00 in0.0 mm
08:32 AM 22.2°F-5.4°C 17.0°F-8.3°C 80% 5.8 mph NW9.3 kmh NW 9.2 mph14.8 kmh 30.14 in1020.7 mb - 0.00 in0.0 mm 0.00 in0.0 mm
08:22 AM 22.1°F-5.5°C 17.2°F-8.2°C 81% 4.6 mph W7.4 kmh W 4.6 mph7.4 kmh 30.14 in1020.7 mb - 0.00 in0.0 mm 0.00 in0.0 mm
08:12 AM 21.9°F-5.6°C 17.0°F-8.3°C 81% 5.8 mph NW9.3 kmh NW 11.5 mph18.5 kmh 30.14 in1020.7 mb - 0.00 in0.0 mm 0.00 in0.0 mm
08:02 AM 21.9°F-5.6°C 17.0°F-8.3°C 81% 5.8 mph NW9.3 kmh NW 9.2 mph14.8 kmh 30.14 in1020.7 mb - 0.00 in0.0 mm 0.00 in0.0 mm
07:52 AM 21.9°F-5.6°C 17.2°F-8.2°C 82% 5.8 mph NW9.3 kmh NW 10.4 mph16.7 kmh 30.14 in1020.7 mb - 0.00 in0.0 mm 0.00 in0.0 mm
07:42 AM 21.8°F-5.7°C 17.2°F-8.2°C 82% 6.9 mph WNW11.1 kmh WNW 9.2 mph14.8 kmh 30.14 in1020.7 mb - 0.00 in0.0 mm 0.00 in0.0 mm
07:32 AM 21.9°F-5.6°C 17.2°F-8.2°C 82% 3.5 mph NW5.6 kmh NW 8.1 mph13.0 kmh 30.13 in1020.3 mb - 0.00 in0.0 mm 0.00 in0.0 mm
07:22 AM 22.1°F-5.5°C 17.2°F-8.2°C 81% 3.5 mph NW5.6 kmh NW 9.2 mph14.8 kmh 30.13 in1020.3 mb - 0.00 in0.0 mm 0.00 in0.0 mm
07:12 AM 22.2°F-5.4°C 17.3°F-8.2°C 81% 2.3 mph NW3.7 kmh NW 4.6 mph7.4 kmh 30.13 in1020.3 mb - 0.00 in0.0 mm 0.00 in0.0 mm
07:02 AM 22.4°F-5.3°C 17.2°F-8.2°C 80% 4.6 mph WNW7.4 kmh WNW 5.8 mph9.3 kmh 30.12 in1020.0 mb - 0.00 in0.0 mm 0.00 in0.0 mm
06:42 AM 22.9°F-5.1°C 17.7°F-7.9°C 80% 3.5 mph NNW5.6 kmh NNW 8.1 mph13.0 kmh 30.12 in1020.0 mb - 0.00 in0.0 mm 0.00 in0.0 mm
06:32 AM 23.0°F-5.0°C 17.5°F-8.1°C 79% 5.8 mph NNW9.3 kmh NNW 9.2 mph14.8 kmh 30.12 in1020.0 mb - 0.00 in0.0 mm 0.00 in0.0 mm
06:22 AM 23.2°F-4.9°C 17.7°F-7.9°C 79% 3.5 mph NW5.6 kmh NW 9.2 mph14.8 kmh 30.12 in1020.0 mb - 0.00 in0.0 mm 0.00 in0.0 mm
06:12 AM 23.5°F-4.7°C 17.6°F-8.0°C 78% 6.9 mph NNW11.1 kmh NNW 9.2 mph14.8 kmh 30.11 in1019.6 mb - 0.00 in0.0 mm 0.00 in0.0 mm
06:02 AM 23.6°F-4.7°C 17.7°F-7.9°C 78% 2.3 mph NNW3.7 kmh NNW 3.5 mph5.6 kmh 30.11 in1019.6 mb - 0.00 in0.0 mm 0.00 in0.0 mm
05:52 AM 23.9°F-4.5°C 18.0°F-7.8°C 78% 4.6 mph NW7.4 kmh NW 5.8 mph9.3 kmh 30.10 in1019.3 mb - 0.00 in0.0 mm 0.00 in0.0 mm
05:42 AM 24.1°F-4.4°C 17.9°F-7.8°C 77% 5.8 mph NW9.3 kmh NW 11.5 mph18.5 kmh 30.10 in1019.3 mb - 0.00 in0.0 mm 0.00 in0.0 mm
05:32 AM 24.4°F-4.2°C 18.5°F-7.5°C 78% 4.6 mph NW7.4 kmh NW 6.9 mph11.1 kmh 30.09 in1019.0 mb - 0.00 in0.0 mm 0.00 in0.0 mm
05:22 AM 24.5°F-4.2°C 18.9°F-7.3°C 79% 6.9 mph NW11.1 kmh NW 11.5 mph18.5 kmh 30.09 in1019.0 mb - 0.00 in0.0 mm 0.00 in0.0 mm
05:12 AM 24.6°F-4.1°C 19.3°F-7.1°C 80% 8.1 mph NW13.0 kmh NW 15.0 mph24.1 kmh 30.08 in1018.6 mb - 0.00 in0.0 mm 0.00 in0.0 mm
05:02 AM 24.7°F-4.1°C 19.7°F-6.8°C 81% 2.3 mph NW3.7 kmh NW 6.9 mph11.1 kmh 30.08 in1018.6 mb - 0.00 in0.0 mm 0.00 in0.0 mm
04:52 AM 24.7°F-4.1°C 20.3°F-6.5°C 83% 4.6 mph NW7.4 kmh NW 8.1 mph13.0 kmh 30.08 in1018.6 mb - 0.00 in0.0 mm 0.00 in0.0 mm
03:52 AM 24.8°F-4.0°C 20.9°F-6.2°C 85% 2.3 mph NW3.7 kmh NW 6.9 mph11.1 kmh 30.07 in1018.3 mb - 0.00 in0.0 mm 0.00 in0.0 mm
03:42 AM 24.8°F-4.0°C 20.9°F-6.2°C 85% 6.9 mph W11.1 kmh W 10.4 mph16.7 kmh 30.07 in1018.3 mb - 0.00 in0.0 mm 0.00 in0.0 mm
03:32 AM 24.8°F-4.0°C 21.2°F-6.0°C 86% 2.3 mph W3.7 kmh W 5.8 mph9.3 kmh 30.07 in1018.3 mb - 0.00 in0.0 mm 0.00 in0.0 mm
03:22 AM 24.7°F-4.1°C 21.1°F-6.1°C 86% 6.9 mph WNW11.1 kmh WNW 9.2 mph14.8 kmh 30.07 in1018.3 mb - 0.00 in0.0 mm 0.00 in0.0 mm
03:12 AM 24.5°F-4.2°C 21.2°F-6.0°C 87% 1.2 mph WSW1.9 kmh WSW 4.6 mph7.4 kmh 30.07 in1018.3 mb - 0.00 in0.0 mm 0.00 in0.0 mm
03:02 AM 24.2°F-4.3°C 21.2°F-6.0°C 88% 4.6 mph W7.4 kmh W 10.4 mph16.7 kmh 30.06 in1017.9 mb - 0.00 in0.0 mm 0.00 in0.0 mm
02:52 AM 24.1°F-4.4°C 21.1°F-6.1°C 88% 6.9 mph WNW11.1 kmh WNW 9.2 mph14.8 kmh 30.06 in1017.9 mb - 0.00 in0.0 mm 0.00 in0.0 mm
02:42 AM 24.1°F-4.4°C 20.8°F-6.2°C 87% 6.9 mph WSW11.1 kmh WSW 9.2 mph14.8 kmh 30.05 in1017.6 mb - 0.00 in0.0 mm 0.00 in0.0 mm
02:32 AM 24.1°F-4.4°C 20.8°F-6.2°C 87% 3.5 mph NW5.6 kmh NW 5.8 mph9.3 kmh 30.05 in1017.6 mb - 0.00 in0.0 mm 0.00 in0.0 mm
02:22 AM 24.1°F-4.4°C 20.2°F-6.6°C 85% 5.8 mph WNW9.3 kmh WNW 9.2 mph14.8 kmh 30.05 in1017.6 mb - 0.00 in0.0 mm 0.00 in0.0 mm
02:12 AM 23.9°F-4.5°C 19.8°F-6.8°C 84% 5.8 mph W9.3 kmh W 8.1 mph13.0 kmh 30.05 in1017.6 mb - 0.00 in0.0 mm 0.00 in0.0 mm
02:02 AM 23.8°F-4.6°C 19.7°F-6.8°C 84% 3.5 mph WSW5.6 kmh WSW 5.8 mph9.3 kmh 30.04 in1017.3 mb - 0.00 in0.0 mm 0.00 in0.0 mm
01:52 AM 23.8°F-4.6°C 19.7°F-6.8°C 84% 6.9 mph W11.1 kmh W 6.9 mph11.1 kmh 30.03 in1016.9 mb - 0.00 in0.0 mm 0.00 in0.0 mm
01:42 AM 23.8°F-4.6°C 19.7°F-6.8°C 84% 5.8 mph WSW9.3 kmh WSW 11.5 mph18.5 kmh 30.03 in1016.9 mb - 0.00 in0.0 mm 0.00 in0.0 mm
01:32 AM 23.6°F-4.7°C 19.5°F-6.9°C 84% 5.8 mph W9.3 kmh W 8.1 mph13.0 kmh 30.03 in1016.9 mb - 0.00 in0.0 mm 0.00 in0.0 mm
01:22 AM 23.5°F-4.7°C 19.1°F-7.2°C 83% 3.5 mph NW5.6 kmh NW 3.5 mph5.6 kmh 30.03 in1016.9 mb - 0.00 in0.0 mm 0.00 in0.0 mm
01:12 AM 23.3°F-4.8°C 18.9°F-7.3°C 83% 8.1 mph W13.0 kmh W 11.5 mph18.5 kmh 30.02 in1016.6 mb - 0.00 in0.0 mm 0.00 in0.0 mm
01:02 AM 23.3°F-4.8°C 18.6°F-7.4°C 82% 6.9 mph W11.1 kmh W 10.4 mph16.7 kmh 30.02 in1016.6 mb - 0.00 in0.0 mm 0.00 in0.0 mm
12:52 AM 23.2°F-4.9°C 18.2°F-7.7°C 81% 4.6 mph WNW7.4 kmh WNW 8.1 mph13.0 kmh 30.02 in1016.6 mb - 0.00 in0.0 mm 0.00 in0.0 mm
12:42 AM 23.3°F-4.8°C 18.0°F-7.8°C 80% 5.8 mph W9.3 kmh W 11.5 mph18.5 kmh 30.01 in1016.3 mb - 0.00 in0.0 mm 0.00 in0.0 mm
12:32 AM 23.3°F-4.8°C 18.0°F-7.8°C 80% 6.9 mph WSW11.1 kmh WSW 10.4 mph16.7 kmh 30.02 in1016.6 mb - 0.00 in0.0 mm 0.00 in0.0 mm
12:22 AM 23.5°F-4.7°C 17.9°F-7.8°C 79% 4.6 mph W7.4 kmh W 10.4 mph16.7 kmh 30.01 in1016.3 mb - 0.00 in0.0 mm 0.00 in0.0 mm
12:12 AM 23.7°F-4.6°C 17.9°F-7.8°C 78% 5.8 mph W9.3 kmh W 11.5 mph18.5 kmh 30.02 in1016.6 mb - 0.00 in0.0 mm 0.00 in0.0 mm
12:02 AM 23.9°F-4.5°C 18.0°F-7.8°C 78% 6.9 mph WSW11.1 kmh WSW 10.4 mph16.7 kmh 30.02 in1016.6 mb - 0.00 in0.0 mm 0.00 in0.0 mm